Terminal Aerodrome Forecast
Issued by NWS

Home | Current Version | Previous Version | Graphics & Text | Print | Product List | Glossary On
Versions: 1 2 3 4 5 6 7 8 9 10 11 12 13 14
889
FTUS43 KICT 251120
TAFCNU
TAF
KCNU 251120Z 2512/2612 13005KT P6SM FEW250
      TEMPO 2512/2513 4SM BR
     FM251800 17011KT P6SM FEW060=

USA.gov is the U.S. government's official web portal to all federal, state and local government web resources and services.